createdAt,value
2017-12-01T13:09:51.966Z,5.03
2017-12-01T13:12:20.300Z,3.50
2017-12-01T13:14:47.842Z,4.00
2017-12-01T13:17:15.370Z,3.50
2017-12-01T13:19:42.932Z,3.43
2017-12-01T13:22:10.463Z,3.40
2017-12-01T13:24:38.023Z,3.60
2017-12-01T13:27:07.268Z,3.10
2017-12-01T13:29:34.830Z,3.60
2017-12-01T13:32:02.359Z,3.67
2017-12-01T13:34:29.896Z,3.80
2017-12-01T13:36:58.219Z,3.57
2017-12-01T13:39:25.765Z,4.00
2017-12-01T13:41:53.363Z,4.03
2017-12-01T13:44:20.895Z,4.40
2017-12-01T13:46:48.431Z,4.13
2017-12-01T13:49:15.988Z,4.07
2017-12-01T13:51:43.530Z,4.20
2017-12-01T13:56:45.818Z,4.40
2017-12-01T13:59:14.158Z,3.90
2017-12-01T14:01:41.704Z,4.13
2017-12-01T14:04:09.240Z,4.20
2017-12-01T14:06:36.809Z,4.43
2017-12-01T14:09:04.351Z,4.27
2017-12-01T14:11:31.916Z,4.30
2017-12-01T14:13:59.457Z,3.87
2017-12-01T14:16:27.783Z,5.20
2017-12-01T14:18:55.324Z,4.50
2017-12-01T14:21:22.856Z,4.80
2017-12-01T14:23:50.430Z,3.57
2017-12-01T14:26:17.989Z,4.00
2017-12-01T14:28:45.571Z,3.90
2017-12-01T14:31:13.103Z,5.07
2017-12-01T14:33:40.724Z,5.47
2017-12-01T14:36:08.264Z,4.63
2017-12-01T14:38:35.811Z,5.00
2017-12-01T14:41:03.395Z,5.07
2017-12-01T14:43:30.926Z,4.77
2017-12-01T14:45:58.522Z,5.37
2017-12-01T14:48:26.949Z,5.70
2017-12-01T14:50:54.511Z,5.57
2017-12-01T14:53:22.047Z,6.60
2017-12-01T14:55:49.596Z,5.53
2017-12-01T14:58:17.167Z,5.00
2017-12-01T15:00:44.705Z,5.57
2017-12-01T15:03:13.027Z,5.50
2017-12-01T15:05:40.563Z,6.33
2017-12-01T15:08:08.123Z,6.20
2017-12-01T15:10:35.651Z,5.33
2017-12-01T15:13:03.984Z,10.83
2017-12-01T15:15:32.495Z,24.30
2017-12-01T15:18:00.811Z,7.70
2017-12-01T15:20:28.392Z,15.53
2017-12-01T15:22:55.936Z,14.53
2017-12-01T15:25:23.499Z,7.57
2017-12-01T15:27:51.035Z,6.90
2017-12-01T15:30:18.616Z,5.63
2017-12-01T15:32:46.155Z,6.83
2017-12-01T15:35:13.818Z,5.70
2017-12-01T15:37:41.356Z,5.90
2017-12-01T15:40:09.703Z,8.03
2017-12-01T15:42:37.262Z,6.20
2017-12-01T15:45:04.803Z,10.40
2017-12-01T15:47:32.389Z,8.10
2017-12-01T15:49:59.952Z,10.70
2017-12-01T15:52:27.528Z,13.03
2017-12-01T15:54:55.955Z,8.80
2017-12-01T15:57:23.519Z,7.83
2017-12-01T15:59:51.064Z,8.80
2017-12-01T16:02:18.628Z,8.17
2017-12-01T16:04:47.172Z,9.57
2017-12-01T16:07:15.516Z,7.90
2017-12-01T16:09:44.011Z,11.20
2017-12-01T16:12:11.588Z,10.07
2017-12-01T16:14:40.909Z,6.73
2017-12-01T16:17:08.460Z,6.93
2017-12-01T16:19:36.031Z,8.57
2017-12-01T16:22:03.622Z,7.00
2017-12-01T16:24:31.162Z,7.63
2017-12-01T16:26:58.752Z,7.33
2017-12-01T16:29:26.327Z,7.30
2017-12-01T16:31:53.858Z,8.17
2017-12-01T16:34:21.421Z,7.67
2017-12-01T16:36:48.947Z,7.47
2017-12-01T16:39:16.478Z,9.00
2017-12-01T16:41:44.807Z,7.97
2017-12-01T16:44:12.344Z,8.57
2017-12-01T16:46:39.935Z,7.93
2017-12-01T16:49:08.423Z,7.20
2017-12-01T16:51:36.003Z,7.50
2017-12-01T16:54:04.310Z,7.30
2017-12-01T16:56:31.875Z,8.73
2017-12-01T16:58:59.409Z,9.00
2017-12-01T17:01:28.671Z,8.13
2017-12-01T17:03:56.230Z,8.33
2017-12-01T17:06:23.771Z,8.67
2017-12-01T17:08:51.331Z,9.90
2017-12-01T17:11:18.907Z,10.03
2017-12-01T17:13:46.467Z,9.50
2017-12-01T17:16:14.016Z,8.13
2017-12-01T17:18:41.575Z,7.87
2017-12-01T17:21:09.111Z,11.80
2017-12-01T17:23:36.652Z,8.60
2017-12-01T17:26:04.213Z,8.63
2017-12-01T17:28:31.747Z,8.40
2017-12-01T17:30:59.310Z,8.10
2017-12-01T17:33:26.839Z,7.47
2017-12-01T17:35:54.399Z,7.30
2017-12-01T17:38:21.924Z,7.37
2017-12-01T17:40:49.454Z,11.33
2017-12-01T17:43:18.958Z,11.50
2017-12-01T17:45:46.494Z,8.73
2017-12-01T17:48:14.834Z,8.67
2017-12-01T17:50:43.339Z,9.80
2017-12-01T17:53:10.902Z,10.20
2017-12-01T17:55:38.438Z,8.60
2017-12-01T17:58:05.995Z,8.90
2017-12-01T18:00:33.527Z,8.23
2017-12-01T18:03:01.062Z,7.47
2017-12-01T18:05:28.619Z,8.40
2017-12-01T18:07:56.159Z,7.37
2017-12-01T18:10:24.493Z,7.97
2017-12-01T18:12:53.031Z,13.83
2017-12-01T18:15:21.360Z,9.03
2017-12-01T18:17:49.851Z,7.80
2017-12-01T18:20:17.396Z,7.77
2017-12-01T18:22:44.948Z,8.33
2017-12-01T18:25:12.499Z,7.87
2017-12-01T18:27:40.087Z,9.30
2017-12-01T18:30:07.631Z,10.27
2017-12-01T18:32:35.211Z,9.80
2017-12-01T18:35:02.755Z,9.60
2017-12-01T18:37:31.292Z,9.30
2017-12-01T18:39:58.832Z,11.90
2017-12-01T18:42:27.132Z,11.60
2017-12-01T18:44:54.694Z,10.53
2017-12-01T18:47:23.187Z,8.83
2017-12-01T18:49:50.747Z,9.20
2017-12-01T18:52:18.292Z,7.63
2017-12-01T18:54:45.867Z,9.10
2017-12-01T18:57:13.398Z,7.27
2017-12-01T18:59:40.978Z,7.30
2017-12-01T19:02:08.522Z,6.83
2017-12-01T19:04:36.231Z,7.97
2017-12-01T19:07:03.776Z,6.70
2017-12-01T19:09:31.312Z,6.57
2017-12-01T19:11:58.880Z,6.80
2017-12-01T19:14:26.411Z,7.50
2017-12-01T19:16:53.971Z,6.90
2017-12-01T19:19:22.553Z,8.10
2017-12-01T19:21:50.081Z,6.90
2017-12-01T19:24:17.629Z,7.13
2017-12-01T19:26:45.183Z,7.80
2017-12-01T19:29:13.523Z,6.50
2017-12-01T19:31:42.030Z,5.87
2017-12-01T19:46:06.172Z,14.60
2017-12-01T19:48:33.723Z,14.03
2017-12-01T19:51:02.601Z,15.10
2017-12-01T19:54:56.202Z,13.37
2017-12-01T19:57:23.731Z,14.77
2017-12-01T19:59:51.286Z,14.30
2017-12-01T20:02:19.583Z,14.17
2017-12-01T20:04:47.145Z,14.33
2017-12-01T21:49:06.231Z,8.87
2017-12-01T21:51:32.612Z,10.80
2017-12-01T21:53:58.976Z,11.60
2017-12-01T21:56:26.866Z,7.90
2017-12-01T21:58:53.796Z,6.97
2017-12-01T22:01:20.224Z,6.93
2017-12-01T22:06:21.395Z,6.93
2017-12-01T22:08:49.979Z,12.23
2017-12-01T22:11:16.343Z,16.00
2017-12-01T22:13:42.735Z,9.73
2017-12-01T22:16:09.155Z,8.70
2017-12-01T22:18:38.012Z,9.43
2017-12-01T22:21:06.136Z,9.67
2017-12-01T22:23:32.931Z,9.73
2017-12-01T22:26:02.912Z,11.83
2017-12-01T22:28:30.540Z,9.00
2017-12-01T22:30:57.640Z,10.40
2017-12-01T22:33:25.591Z,9.70
2017-12-01T22:35:54.782Z,9.73
2017-12-01T22:38:21.175Z,8.63
2017-12-01T22:40:48.289Z,10.40
2017-12-01T22:43:14.678Z,9.37
2017-12-01T22:45:41.064Z,12.03
2017-12-01T22:48:07.848Z,10.50
2017-12-01T22:50:35.988Z,9.33
2017-12-01T22:53:04.420Z,9.77
2017-12-01T22:55:31.302Z,10.07
2017-12-01T22:57:57.651Z,9.53
2017-12-01T23:00:24.820Z,13.57
2017-12-01T23:02:51.163Z,10.97
2017-12-01T23:05:21.032Z,10.87
2017-12-01T23:07:47.392Z,15.87
2017-12-01T23:10:13.787Z,14.17
2017-12-01T23:12:40.220Z,10.70
2017-12-01T23:15:06.578Z,11.10
2017-12-01T23:17:33.678Z,11.43
2017-12-01T23:20:02.280Z,10.37
2017-12-01T23:22:28.661Z,10.97
2017-12-01T23:24:55.016Z,10.97
2017-12-01T23:27:21.719Z,10.50
2017-12-01T23:29:49.007Z,11.10
2017-12-01T23:32:16.336Z,13.60
2017-12-01T23:37:17.167Z,11.57
2017-12-01T23:39:47.357Z,12.40
2017-12-01T23:42:13.723Z,13.50
2017-12-01T23:44:40.854Z,11.70
2017-12-01T23:47:07.984Z,11.70
2017-12-01T23:49:34.755Z,11.90
2017-12-01T23:52:01.879Z,11.07
2017-12-01T23:54:28.291Z,11.70
2017-12-01T23:56:54.655Z,10.70
2017-12-01T23:59:21.039Z,10.60
